If you wish to contribute or participate in the discussions about articles you are invited to join SKYbrary as a registered user

 Actions

Lubango Airport

From SKYbrary Wiki

FNUB
Airport
ICAO: FNUB – IATA: SDD
Summary
Name Lubango Airport
Region Africa
Territory Angola AO.gif
Location , Huila
Serving Lubango
Elevation 1,761.134 m
5,778 ft
5,778 ft1,761.134 m
Coordinates 14° 55' 29.04" S, 13° 34' 30.08" E
Runways
Designator Length Width Surface ROPS
10/28 2917 m9,570.21 ft
45 m147.638 ft
ASP /


METAR
Observation FNUB 160500Z VRB03KT 9999 FEW007 BKN030 17/16 Q1025
Station Lubango Airport
Date/Time 16 October 2019 05:00:00
Wind direction °
Wind speed 03 kts
Lowest cloud amount few clouds
Temperature 17°C
Dew point 16°C
Humidity 93%
QNH 1025 hPa
Weather condition n/a